createdAt,value
2022-09-02T00:00:54.667Z,91.03
2022-09-02T00:01:54.741Z,91.64
2022-09-02T00:02:54.797Z,91.74
2022-09-02T00:03:54.626Z,91.85
2022-09-02T00:04:54.680Z,91.64
2022-09-02T00:05:54.620Z,91.74
2022-09-02T00:06:54.586Z,91.85
2022-09-02T00:07:54.597Z,92.15
2022-09-02T00:08:54.560Z,92.25
2022-09-02T00:09:54.574Z,92.25
2022-09-02T00:10:54.554Z,91.95
2022-09-02T00:11:54.527Z,91.44
2022-09-02T00:12:54.568Z,92.15
2022-09-02T00:13:54.544Z,92.36
2022-09-02T00:14:54.515Z,92.25
2022-09-02T00:15:54.483Z,92.15
2022-09-02T00:16:54.547Z,92.25
2022-09-02T00:17:54.465Z,92.15
2022-09-02T00:18:54.472Z,92.36
2022-09-02T00:19:56.253Z,92.25
2022-09-02T00:20:54.443Z,92.25
2022-09-02T00:21:54.416Z,92.15
2022-09-02T00:22:54.531Z,92.46
2022-09-02T00:23:54.392Z,92.30
2022-09-02T00:24:54.416Z,92.77
2022-09-02T00:25:54.370Z,93.07
2022-09-02T00:26:56.613Z,93.07
2022-09-02T00:27:54.344Z,92.97
2022-09-02T00:28:56.320Z,93.07
2022-09-02T00:29:54.370Z,92.56
2022-09-02T00:30:54.344Z,92.66
2022-09-02T00:31:54.430Z,93.18
2022-09-02T00:32:54.329Z,92.87
2022-09-02T00:33:54.288Z,92.15
2022-09-02T00:34:54.326Z,92.05
2022-09-02T00:35:54.280Z,92.46
2022-09-02T00:36:54.273Z,92.50
2022-09-02T00:37:54.231Z,92.36
2022-09-02T00:38:54.224Z,92.36
2022-09-02T00:39:54.222Z,92.50
2022-09-02T00:40:54.223Z,92.30
2022-09-02T00:41:54.220Z,92.40
2022-09-02T00:42:54.191Z,92.50
2022-09-02T00:43:54.177Z,92.40
2022-09-02T00:44:54.209Z,92.10
2022-09-02T00:45:54.166Z,92.19
2022-09-02T00:46:54.191Z,92.10
2022-09-02T00:47:54.187Z,92.40
2022-09-02T00:48:54.138Z,92.19
2022-09-02T00:49:54.121Z,92.19
2022-09-02T00:50:54.088Z,92.40
2022-09-02T00:51:54.076Z,92.60
2022-09-02T00:52:54.069Z,92.50
2022-09-02T00:56:21.842Z,92.14
2022-09-02T00:57:12.620Z,92.65
2022-09-02T00:58:12.571Z,92.34
2022-09-02T00:59:12.536Z,92.59
2022-09-02T01:00:12.571Z,92.69
2022-09-02T01:01:12.605Z,92.38
2022-09-02T01:02:12.629Z,93.16
2022-09-02T01:03:12.503Z,93.00
2022-09-02T01:04:12.474Z,93.62
2022-09-02T01:05:12.470Z,93.20
2022-09-02T01:06:12.499Z,92.90
2022-09-02T01:07:12.428Z,92.69
2022-09-02T01:08:12.491Z,92.79
2022-09-02T01:09:12.388Z,92.28
2022-09-02T01:10:12.433Z,92.38
2022-09-02T01:11:12.438Z,92.38
2022-09-02T01:12:12.422Z,92.28
2022-09-02T01:13:12.442Z,92.94
2022-09-02T01:14:12.371Z,93.20
2022-09-02T01:15:12.388Z,92.74
2022-09-02T01:16:12.407Z,92.63
2022-09-02T01:17:12.348Z,92.53
2022-09-02T01:18:12.352Z,92.22
2022-09-02T01:19:12.310Z,92.63
2022-09-02T01:20:12.313Z,92.53
2022-09-02T01:21:12.329Z,92.53
2022-09-02T01:22:12.293Z,92.32
2022-09-02T01:23:12.279Z,92.43
2022-09-02T01:24:12.321Z,92.53
2022-09-02T01:25:12.266Z,92.53
2022-09-02T01:26:12.264Z,92.43
2022-09-02T01:27:12.237Z,92.57
2022-09-02T01:28:12.225Z,92.36
2022-09-02T01:29:12.268Z,91.35
2022-09-02T01:30:12.337Z,92.16
2022-09-02T01:31:12.208Z,92.47
2022-09-02T01:32:12.148Z,92.68
2022-09-02T01:33:12.127Z,92.68
2022-09-02T01:34:12.105Z,92.57
2022-09-02T01:35:12.100Z,92.47
2022-09-02T01:36:12.095Z,92.41
2022-09-02T01:37:12.086Z,92.72
2022-09-02T01:38:12.058Z,92.72
2022-09-02T01:39:12.061Z,92.41
2022-09-02T01:40:12.071Z,92.41
2022-09-02T01:41:12.036Z,92.72
2022-09-02T01:42:12.011Z,92.31
2022-09-02T01:43:11.997Z,92.51
2022-09-02T01:44:12.022Z,92.61
2022-09-02T01:45:11.977Z,92.41
2022-09-02T01:46:12.007Z,92.51
2022-09-02T01:47:11.966Z,92.51
2022-09-02T01:48:11.943Z,92.51
2022-09-02T01:49:11.929Z,92.46
2022-09-02T01:50:11.944Z,92.76
2022-09-02T01:51:11.906Z,92.76
2022-09-02T01:52:11.895Z,92.97
2022-09-02T01:53:11.981Z,93.07
2022-09-02T01:54:11.892Z,93.38
2022-09-02T01:55:11.862Z,93.07
2022-09-02T01:56:11.849Z,92.76
2022-09-02T01:57:11.841Z,92.86
2022-09-02T01:58:11.827Z,93.38
2022-09-02T01:59:11.848Z,93.48
2022-09-02T02:00:11.939Z,93.38
2022-09-02T02:01:11.881Z,93.07
2022-09-02T02:02:11.877Z,92.76
2022-09-02T02:03:11.775Z,93.48
2022-09-02T02:04:13.511Z,93.38
2022-09-02T02:05:11.759Z,93.63
2022-09-02T02:06:11.757Z,93.79
2022-09-02T02:07:11.744Z,93.63
2022-09-02T02:08:11.725Z,94.24
2022-09-02T02:09:11.803Z,94.20
2022-09-02T02:10:11.791Z,93.63
2022-09-02T02:11:11.713Z,93.89
2022-09-02T02:12:11.700Z,93.42
2022-09-02T02:13:11.655Z,93.83
2022-09-02T02:14:11.754Z,93.42
2022-09-02T02:15:11.632Z,93.83
2022-09-02T02:16:11.702Z,93.42
2022-09-02T02:17:11.626Z,93.52
2022-09-02T02:18:14.579Z,94.14
2022-09-02T02:19:11.587Z,93.63
2022-09-02T02:20:11.594Z,93.63
2022-09-02T02:21:11.564Z,94.14
2022-09-02T02:22:11.558Z,93.42
2022-09-02T02:23:11.579Z,94.08
2022-09-02T02:24:11.532Z,94.14
2022-09-02T02:25:11.525Z,93.98
2022-09-02T02:26:11.508Z,93.42
2022-09-02T02:27:11.496Z,93.16
2022-09-02T02:28:11.506Z,93.46
2022-09-02T02:29:11.506Z,93.67
2022-09-02T02:30:11.460Z,94.18
2022-09-02T02:31:11.496Z,93.98
2022-09-02T02:32:11.445Z,94.18
2022-09-02T02:33:11.430Z,93.87
2022-09-02T02:34:11.439Z,93.98
2022-09-02T02:35:11.443Z,93.98
2022-09-02T02:36:11.394Z,94.18
2022-09-02T02:37:11.378Z,93.67
2022-09-02T02:38:14.239Z,93.98
2022-09-02T02:39:11.383Z,93.77
2022-09-02T02:40:11.399Z,94.08
2022-09-02T02:41:11.351Z,94.08
2022-09-02T02:42:11.326Z,94.18
2022-09-02T02:43:11.313Z,94.18
2022-09-02T02:44:11.303Z,94.08
2022-09-02T02:45:15.174Z,93.77
2022-09-02T02:46:11.324Z,93.87
2022-09-02T02:47:11.284Z,94.29
2022-09-02T02:48:11.264Z,94.29
2022-09-02T02:49:11.244Z,94.39
2022-09-02T02:50:11.254Z,94.33
2022-09-02T02:51:11.229Z,94.43
2022-09-02T02:52:11.227Z,93.98
2022-09-02T02:53:14.080Z,94.12
2022-09-02T02:54:11.190Z,94.64
2022-09-02T02:55:11.197Z,94.49
2022-09-02T02:56:11.165Z,94.29
2022-09-02T02:57:11.153Z,94.02
2022-09-02T02:58:11.159Z,94.64
2022-09-02T02:59:12.132Z,94.64
2022-09-02T03:00:11.146Z,94.33
2022-09-02T03:01:11.108Z,94.02
2022-09-02T03:02:11.164Z,94.64
2022-09-02T03:03:11.124Z,94.23
2022-09-02T03:04:11.106Z,94.43
2022-09-02T03:05:11.080Z,94.12
2022-09-02T03:06:11.050Z,94.43
2022-09-02T03:07:11.079Z,94.43
2022-09-02T03:08:11.031Z,94.23
2022-09-02T03:09:11.014Z,94.54
2022-09-02T03:10:11.035Z,94.43
2022-09-02T03:11:10.992Z,94.43
2022-09-02T03:12:10.981Z,94.02
2022-09-02T03:13:10.975Z,94.54
2022-09-02T03:14:10.958Z,94.58
2022-09-02T03:15:10.964Z,94.68
2022-09-02T03:16:11.020Z,94.78
2022-09-02T03:17:10.927Z,94.78
2022-09-02T03:18:10.988Z,94.48
2022-09-02T03:19:10.899Z,94.48
2022-09-02T03:20:10.907Z,94.68
2022-09-02T03:21:10.875Z,94.27
2022-09-02T03:22:10.892Z,94.48
2022-09-02T03:23:10.853Z,94.48
2022-09-02T03:24:10.843Z,94.78
2022-09-02T03:25:10.847Z,94.27
2022-09-02T03:26:10.819Z,94.68
2022-09-02T03:27:10.804Z,94.58
2022-09-02T03:28:10.808Z,94.48
2022-09-02T03:29:10.803Z,94.27
2022-09-02T03:30:10.794Z,94.48
2022-09-02T03:31:10.814Z,94.17
2022-09-02T03:32:10.768Z,94.27
2022-09-02T03:33:10.736Z,94.31
2022-09-02T03:34:10.742Z,94.17
2022-09-02T03:35:10.732Z,94.73
2022-09-02T03:36:10.702Z,94.48
2022-09-02T03:37:10.710Z,94.48
2022-09-02T03:38:10.746Z,94.11
2022-09-02T03:39:10.666Z,93.90
2022-09-02T03:40:10.721Z,94.17
2022-09-02T03:41:10.642Z,94.58
2022-09-02T03:42:11.213Z,94.37
2022-09-02T03:43:11.617Z,94.27
2022-09-02T03:44:10.607Z,94.62
2022-09-02T03:45:10.616Z,94.62
2022-09-02T03:46:10.664Z,94.52
2022-09-02T03:47:10.573Z,94.52
2022-09-02T03:48:10.582Z,94.93
2022-09-02T03:49:10.552Z,94.93
2022-09-02T03:50:10.560Z,94.52
2022-09-02T03:51:10.571Z,94.93
2022-09-02T03:52:10.669Z,94.26
2022-09-02T03:53:16.587Z,94.42
2022-09-02T03:54:11.530Z,94.67
2022-09-02T03:55:10.503Z,95.18
2022-09-02T03:56:10.492Z,94.87
2022-09-02T03:57:10.457Z,94.87
2022-09-02T03:58:10.458Z,94.73
2022-09-02T03:59:11.549Z,94.56
2022-09-02T04:00:10.422Z,94.26
2022-09-02T04:01:10.516Z,94.77
2022-09-02T04:02:10.573Z,94.26
2022-09-02T04:03:10.427Z,95.08
2022-09-02T04:04:10.410Z,94.77
2022-09-02T04:05:15.802Z,95.28
2022-09-02T04:06:11.351Z,94.77
2022-09-02T04:07:10.342Z,94.87
2022-09-02T04:08:10.328Z,94.46
2022-09-02T04:09:10.328Z,94.98
2022-09-02T04:10:10.339Z,94.67
2022-09-02T04:11:10.314Z,94.56
2022-09-02T04:12:10.283Z,94.98
2022-09-02T04:13:10.274Z,94.98
2022-09-02T04:14:10.278Z,94.36
2022-09-02T04:15:10.269Z,94.87
2022-09-02T04:16:10.537Z,94.67
2022-09-02T04:17:10.226Z,94.67
2022-09-02T04:18:10.213Z,94.77
2022-09-02T04:19:10.218Z,94.98
2022-09-02T04:20:10.187Z,94.26
2022-09-02T04:21:10.190Z,94.26
2022-09-02T04:22:10.166Z,94.77
2022-09-02T04:23:10.251Z,94.56
2022-09-02T04:24:10.188Z,94.87
2022-09-02T04:25:10.152Z,94.77
2022-09-02T04:26:10.124Z,95.08
2022-09-02T04:27:10.122Z,94.26
2022-09-02T04:28:10.101Z,94.60
2022-09-02T04:29:10.087Z,94.40
2022-09-02T04:30:10.092Z,94.40
2022-09-02T04:31:10.183Z,94.87
2022-09-02T04:32:10.051Z,94.71
2022-09-02T04:33:10.065Z,94.98
2022-09-02T04:34:10.027Z,95.08
2022-09-02T04:35:10.036Z,94.67
2022-09-02T04:36:10.012Z,94.67
2022-09-02T04:37:09.997Z,94.98
2022-09-02T04:38:09.980Z,94.87
2022-09-02T04:39:10.008Z,94.67
2022-09-02T04:40:10.051Z,94.98
2022-09-02T04:41:09.953Z,94.98
2022-09-02T04:42:09.936Z,95.23
2022-09-02T04:43:09.930Z,94.67
2022-09-02T04:44:09.936Z,94.87
2022-09-02T04:45:09.940Z,94.98
2022-09-02T04:46:09.960Z,95.28
2022-09-02T04:47:09.882Z,94.67
2022-09-02T04:48:09.867Z,95.18
2022-09-02T04:49:09.879Z,94.56
2022-09-02T04:50:09.866Z,94.98
2022-09-02T04:51:09.858Z,94.98
2022-09-02T04:52:09.822Z,94.67
2022-09-02T04:53:09.810Z,95.18
2022-09-02T04:54:09.798Z,94.67
2022-09-02T04:55:09.813Z,94.87
2022-09-02T04:56:09.771Z,94.98
2022-09-02T04:57:09.803Z,95.18
2022-09-02T04:58:09.749Z,95.28
2022-09-02T04:59:09.760Z,95.18
2022-09-02T05:00:09.726Z,94.87
2022-09-02T05:01:09.813Z,95.18
2022-09-02T05:02:09.907Z,95.18
2022-09-02T05:03:09.705Z,95.39
2022-09-02T05:04:09.888Z,95.55
2022-09-02T05:05:09.691Z,95.45
2022-09-02T05:06:09.677Z,95.45
2022-09-02T05:07:09.648Z,95.03
2022-09-02T05:08:09.638Z,94.93
2022-09-02T05:09:09.643Z,94.93
2022-09-02T05:10:09.633Z,94.62
2022-09-02T05:11:09.603Z,94.93
2022-09-02T05:12:09.588Z,94.83
2022-09-02T05:13:09.580Z,95.03
2022-09-02T05:14:09.566Z,95.55
2022-09-02T05:15:09.599Z,95.14
2022-09-02T05:16:09.628Z,95.96
2022-09-02T05:17:09.535Z,95.55
2022-09-02T05:18:09.521Z,95.92
2022-09-02T05:19:09.510Z,95.71
2022-09-02T05:20:09.518Z,95.61
2022-09-02T05:21:09.502Z,95.71
2022-09-02T05:22:09.476Z,96.12
2022-09-02T05:23:09.461Z,96.12
2022-09-02T05:24:09.453Z,96.02
2022-09-02T05:25:09.466Z,96.02
2022-09-02T05:26:09.430Z,96.12
2022-09-02T05:27:09.481Z,96.43
2022-09-02T05:28:09.405Z,96.22
2022-09-02T05:29:09.404Z,96.08
2022-09-02T05:30:09.411Z,96.59
2022-09-02T05:31:09.442Z,96.18
2022-09-02T05:32:09.358Z,96.18
2022-09-02T05:33:09.361Z,96.69
2022-09-02T05:34:09.336Z,96.34
2022-09-02T05:35:09.346Z,96.69
2022-09-02T05:36:09.537Z,96.69
2022-09-02T05:37:09.301Z,96.55
2022-09-02T05:38:09.290Z,96.85
2022-09-02T05:39:09.293Z,96.95
2022-09-02T05:40:10.473Z,96.65
2022-09-02T05:41:09.292Z,96.91
2022-09-02T05:42:09.247Z,96.70
2022-09-02T05:43:09.232Z,97.42
2022-09-02T05:44:09.215Z,97.53
2022-09-02T05:45:09.205Z,97.48
2022-09-02T05:46:09.257Z,97.28
2022-09-02T05:47:09.203Z,97.48
2022-09-02T05:48:09.241Z,97.38
2022-09-02T05:49:09.302Z,97.13
2022-09-02T05:50:09.171Z,97.44
2022-09-02T05:51:09.152Z,97.44
2022-09-02T05:52:09.128Z,97.29
2022-09-02T05:53:14.234Z,97.08
2022-09-02T05:54:10.107Z,96.26
2022-09-02T05:55:09.120Z,96.63
2022-09-02T05:56:09.089Z,96.94
2022-09-02T05:57:09.093Z,96.12
2022-09-02T05:58:09.064Z,95.91
2022-09-02T05:59:09.073Z,95.81
2022-09-02T06:00:09.040Z,96.38
2022-09-02T06:01:09.025Z,95.76
2022-09-02T06:02:09.130Z,95.66
2022-09-02T06:03:09.063Z,95.97
2022-09-02T06:04:09.015Z,95.15
2022-09-02T06:05:08.989Z,95.31
2022-09-02T06:06:08.970Z,94.81
2022-09-02T06:07:09.050Z,93.25
2022-09-02T06:08:08.946Z,92.36
2022-09-02T06:09:08.937Z,90.77
2022-09-02T06:10:08.942Z,89.37
2022-09-02T06:11:08.910Z,85.90
2022-09-02T06:12:08.919Z,81.43
2022-09-02T06:13:08.892Z,80.04
2022-09-02T06:14:08.874Z,80.12
2022-09-02T06:15:08.888Z,75.16
2022-09-02T06:16:08.966Z,75.43
2022-09-02T06:17:08.842Z,76.70
2022-09-02T06:18:08.828Z,68.11
2022-09-02T06:19:08.849Z,67.07
2022-09-02T06:20:08.809Z,64.03
2022-09-02T06:21:08.801Z,66.71
2022-09-02T06:22:09.308Z,65.67
2022-09-02T06:23:08.774Z,64.84
2022-09-02T06:24:08.761Z,67.72
2022-09-02T06:25:08.776Z,67.65
2022-09-02T06:26:08.742Z,61.11
2022-09-02T06:27:08.732Z,59.68
2022-09-02T06:28:08.822Z,60.45
2022-09-02T06:29:08.712Z,61.92
2022-09-02T06:30:08.693Z,58.19
2022-09-02T06:31:08.765Z,60.33
2022-09-02T06:32:08.675Z,56.14
2022-09-02T06:33:08.663Z,55.44
2022-09-02T06:34:08.657Z,57.71
2022-09-02T06:35:08.666Z,55.62
2022-09-02T06:36:08.651Z,58.18
2022-09-02T06:37:08.619Z,58.48
2022-09-02T06:38:08.609Z,53.36
2022-09-02T06:39:08.600Z,57.03
2022-09-02T06:40:08.660Z,57.00
2022-09-02T06:41:08.578Z,55.05
2022-09-02T06:42:08.558Z,52.94
2022-09-02T06:43:08.555Z,53.61
2022-09-02T06:44:08.569Z,54.28
2022-09-02T06:45:08.533Z,48.81
2022-09-02T06:46:08.601Z,52.89
2022-09-02T06:47:08.509Z,54.95
2022-09-02T06:48:08.534Z,51.03
2022-09-02T06:49:08.483Z,54.21
2022-09-02T06:50:08.468Z,51.70
2022-09-02T06:51:08.459Z,52.86
2022-09-02T06:52:08.447Z,51.65
2022-09-02T06:53:08.455Z,50.83
2022-09-02T06:54:08.439Z,49.74
2022-09-02T06:55:08.414Z,49.84
2022-09-02T06:56:17.487Z,51.10
2022-09-02T06:57:08.395Z,50.51
2022-09-02T06:58:08.391Z,49.51
2022-09-02T06:59:08.426Z,50.31
2022-09-02T07:00:08.542Z,50.70
2022-09-02T07:01:08.404Z,49.71
2022-09-02T07:02:08.596Z,48.25
2022-09-02T07:03:08.344Z,50.73
2022-09-02T07:04:08.315Z,49.24
2022-09-02T07:05:08.306Z,49.26
2022-09-02T07:06:08.350Z,49.36
2022-09-02T07:07:08.292Z,50.33
2022-09-02T07:08:08.271Z,49.34
2022-09-02T07:09:08.265Z,48.14
2022-09-02T07:10:08.256Z,47.97
2022-09-02T07:11:08.285Z,47.27
2022-09-02T07:12:08.235Z,49.70
2022-09-02T07:13:08.350Z,51.95
2022-09-02T07:14:08.215Z,50.40
2022-09-02T07:15:08.218Z,51.54
2022-09-02T07:16:08.305Z,55.07
2022-09-02T07:17:08.491Z,55.66
2022-09-02T07:18:08.167Z,55.02
2022-09-02T07:19:13.156Z,55.29
2022-09-02T07:20:09.151Z,52.69
2022-09-02T07:21:11.047Z,53.19
2022-09-02T07:22:08.382Z,52.22
2022-09-02T07:23:08.126Z,54.41
2022-09-02T07:24:08.099Z,51.34
2022-09-02T07:25:08.087Z,54.54
2022-09-02T07:26:08.094Z,54.37
2022-09-02T07:27:08.090Z,52.59
2022-09-02T07:28:08.078Z,52.89
2022-09-02T07:29:08.061Z,55.29
2022-09-02T07:30:08.031Z,57.67
2022-09-02T07:31:08.040Z,53.37
2022-09-02T07:32:08.008Z,54.77
2022-09-02T07:33:08.020Z,54.34
2022-09-02T07:34:07.985Z,55.44
2022-09-02T07:35:08.005Z,53.22
2022-09-02T07:36:10.983Z,52.55
2022-09-02T07:37:10.904Z,53.47
2022-09-02T07:38:07.944Z,55.40
2022-09-02T07:39:07.931Z,52.52
2022-09-02T07:40:08.011Z,53.67
2022-09-02T07:41:07.957Z,55.30
2022-09-02T07:42:07.953Z,55.22
2022-09-02T07:43:07.889Z,55.22
2022-09-02T07:44:07.893Z,58.33
2022-09-02T07:45:07.868Z,59.31
2022-09-02T07:46:09.347Z,59.00
2022-09-02T07:49:05.149Z,54.17
2022-09-02T07:50:21.301Z,53.32
2022-09-02T07:51:05.242Z,55.65
2022-09-02T07:52:04.407Z,56.30
2022-09-02T07:53:05.167Z,56.81
2022-09-02T07:54:04.347Z,57.31
2022-09-02T07:55:14.942Z,60.69
2022-09-02T07:56:04.751Z,58.66
2022-09-02T07:57:04.150Z,57.53
2022-09-02T07:58:04.318Z,56.93
2022-09-02T07:59:04.150Z,55.43
2022-09-02T08:00:04.144Z,55.58
2022-09-02T08:01:04.180Z,56.84
2022-09-02T08:02:04.206Z,60.35
2022-09-02T08:03:04.391Z,58.84
2022-09-02T08:04:06.153Z,57.01
2022-09-02T08:05:04.079Z,56.51
2022-09-02T08:06:04.252Z,57.74
2022-09-02T08:07:04.032Z,59.65
2022-09-02T08:08:04.025Z,59.92
2022-09-02T08:09:04.038Z,60.60
2022-09-02T08:10:04.008Z,56.15
2022-09-02T08:11:04.014Z,55.55
2022-09-02T08:12:04.005Z,55.28
2022-09-02T08:13:04.002Z,55.13
2022-09-02T08:14:03.962Z,58.40
2022-09-02T08:15:03.952Z,57.29
2022-09-02T08:16:04.018Z,57.09
2022-09-02T08:17:03.940Z,59.47
2022-09-02T08:18:03.935Z,58.87
2022-09-02T08:19:03.902Z,59.55
2022-09-02T08:20:04.245Z,56.71
2022-09-02T08:21:03.888Z,55.93
2022-09-02T08:22:03.874Z,56.34
2022-09-02T08:23:11.877Z,58.17
2022-09-02T08:24:04.856Z,59.85
2022-09-02T08:25:03.835Z,59.25
2022-09-02T08:26:03.824Z,59.32
2022-09-02T08:27:03.826Z,56.68
2022-09-02T08:28:03.833Z,55.18
2022-09-02T08:29:03.790Z,56.16
2022-09-02T08:30:03.843Z,58.80
2022-09-02T08:31:03.780Z,55.28
2022-09-02T08:32:03.810Z,58.73
2022-09-02T08:33:03.747Z,56.77
2022-09-02T08:34:03.754Z,59.79
2022-09-02T08:35:03.723Z,60.67
2022-09-02T08:36:03.713Z,59.74
2022-09-02T08:37:03.700Z,57.24
2022-09-02T08:38:03.830Z,58.31
2022-09-02T08:39:03.702Z,59.75
2022-09-02T08:40:03.671Z,62.06
2022-09-02T08:41:03.669Z,59.09
2022-09-02T08:42:03.699Z,60.10
2022-09-02T08:43:03.635Z,61.61
2022-09-02T08:44:03.640Z,61.59
2022-09-02T08:45:03.635Z,61.56
2022-09-02T08:46:03.724Z,63.45
2022-09-02T08:47:03.589Z,64.02
2022-09-02T08:48:03.601Z,63.28
2022-09-02T08:49:03.568Z,61.14
2022-09-02T08:50:03.955Z,62.42
2022-09-02T08:51:03.545Z,58.60
2022-09-02T08:52:03.537Z,58.70
2022-09-02T08:53:03.549Z,58.33
2022-09-02T08:54:05.643Z,60.61
2022-09-02T08:55:03.520Z,60.91
2022-09-02T08:56:03.505Z,61.58
2022-09-02T08:57:03.480Z,60.35
2022-09-02T08:58:03.592Z,58.11
2022-09-02T08:59:03.460Z,56.71
2022-09-02T09:00:03.475Z,54.33
2022-09-02T09:01:03.563Z,55.86
2022-09-02T09:02:03.482Z,58.77
2022-09-02T09:03:03.422Z,59.25
2022-09-02T09:04:03.400Z,58.81
2022-09-02T09:05:03.410Z,59.22
2022-09-02T09:06:03.377Z,57.48
2022-09-02T09:07:03.372Z,55.65
2022-09-02T09:08:03.365Z,56.33
2022-09-02T09:09:03.364Z,53.32
2022-09-02T09:10:03.330Z,56.93
2022-09-02T09:11:03.318Z,54.72
2022-09-02T09:12:03.314Z,53.45
2022-09-02T09:13:03.295Z,55.79
2022-09-02T09:14:03.332Z,59.06
2022-09-02T09:15:03.323Z,59.46
2022-09-02T09:16:03.291Z,59.96
2022-09-02T09:17:03.267Z,57.72
2022-09-02T09:18:03.276Z,57.15
2022-09-02T09:19:06.913Z,59.48
2022-09-02T09:20:04.251Z,58.55
2022-09-02T09:21:12.040Z,62.27
2022-09-02T09:22:03.260Z,62.15
2022-09-02T09:23:03.240Z,59.03
2022-09-02T09:24:05.441Z,61.61
2022-09-02T09:25:03.246Z,62.08
2022-09-02T09:26:03.315Z,57.24
2022-09-02T09:27:03.173Z,56.26
2022-09-02T09:28:03.180Z,56.06
2022-09-02T09:29:03.121Z,57.29
2022-09-02T09:30:03.145Z,59.78
2022-09-02T09:31:03.102Z,58.17
2022-09-02T09:32:03.244Z,58.17
2022-09-02T09:33:03.125Z,55.46
2022-09-02T09:34:03.087Z,55.48
2022-09-02T09:35:03.148Z,57.52
2022-09-02T09:36:03.104Z,59.33
2022-09-02T09:37:03.042Z,59.74
2022-09-02T09:38:03.045Z,60.13
2022-09-02T09:39:03.021Z,59.66
2022-09-02T09:40:03.004Z,57.24
2022-09-02T09:41:03.062Z,57.98
2022-09-02T09:42:03.003Z,60.89
2022-09-02T09:43:03.046Z,61.70
2022-09-02T09:44:03.001Z,61.60
2022-09-02T09:45:02.960Z,61.80
2022-09-02T09:46:02.991Z,62.71
2022-09-02T09:47:02.959Z,59.56
2022-09-02T09:48:02.940Z,59.13
2022-09-02T09:49:02.925Z,60.44
2022-09-02T09:50:02.918Z,56.54
2022-09-02T09:51:02.894Z,61.57
2022-09-02T09:52:02.870Z,62.07
2022-09-02T09:53:02.876Z,60.36
2022-09-02T09:54:02.890Z,59.94
2022-09-02T09:55:02.864Z,57.06
2022-09-02T09:56:02.828Z,56.86
2022-09-02T09:57:02.856Z,60.85
2022-09-02T09:58:02.902Z,55.53
2022-09-02T09:59:02.847Z,56.36
2022-09-02T10:00:02.799Z,59.05
2022-09-02T10:01:02.889Z,57.46
2022-09-02T10:02:02.828Z,59.25
2022-09-02T10:03:02.749Z,56.16
2022-09-02T10:04:02.734Z,55.76
2022-09-02T10:05:02.730Z,55.86
2022-09-02T10:06:02.736Z,55.21
2022-09-02T10:07:02.725Z,56.14
2022-09-02T10:08:02.687Z,57.17
2022-09-02T10:09:02.709Z,56.27
2022-09-02T10:10:02.670Z,57.81
2022-09-02T10:11:02.654Z,58.44
2022-09-02T10:12:02.764Z,57.03
2022-09-02T10:13:02.679Z,58.74
2022-09-02T10:14:02.641Z,60.96
2022-09-02T10:15:02.651Z,59.72
2022-09-02T10:16:02.659Z,58.61
2022-09-02T10:17:02.601Z,56.49
2022-09-02T10:18:02.598Z,56.90
2022-09-02T10:19:02.572Z,58.61
2022-09-02T10:20:04.461Z,58.21
2022-09-02T10:21:14.782Z,57.50
2022-09-02T10:22:03.536Z,58.81
2022-09-02T10:23:02.524Z,56.09
2022-09-02T10:24:02.521Z,57.08
2022-09-02T10:25:02.542Z,59.60
2022-09-02T10:26:02.506Z,61.72
2022-09-02T10:27:02.483Z,63.10
2022-09-02T10:28:02.613Z,62.40
2022-09-02T10:29:04.294Z,62.40
2022-09-02T10:30:02.479Z,61.76
2022-09-02T10:31:02.787Z,60.15
2022-09-02T10:32:02.426Z,61.13
2022-09-02T10:33:02.421Z,59.92
2022-09-02T10:34:02.414Z,60.42
2022-09-02T10:35:05.360Z,60.02
2022-09-02T10:36:02.379Z,58.98
2022-09-02T10:37:02.364Z,58.31
2022-09-02T10:38:02.354Z,60.72
2022-09-02T10:39:02.388Z,61.23
2022-09-02T10:40:02.337Z,62.21
2022-09-02T10:41:02.348Z,60.49
2022-09-02T10:42:02.338Z,60.39
2022-09-02T10:43:02.307Z,62.10
2022-09-02T10:44:02.310Z,59.89
2022-09-02T10:45:02.280Z,64.89
2022-09-02T10:46:02.289Z,64.46
2022-09-02T10:47:02.347Z,61.71
2022-09-02T10:48:02.284Z,60.08
2022-09-02T10:49:02.252Z,61.35
2022-09-02T10:50:02.367Z,62.03
2022-09-02T10:51:02.239Z,59.52
2022-09-02T10:52:02.216Z,58.29
2022-09-02T10:53:03.750Z,59.59
2022-09-02T10:54:02.687Z,58.86
2022-09-02T10:55:02.163Z,59.49
2022-09-02T10:56:02.173Z,55.95
2022-09-02T10:57:02.152Z,56.26
2022-09-02T10:58:02.174Z,54.88
2022-09-02T10:59:02.156Z,57.31
2022-09-02T11:00:02.126Z,56.41
2022-09-02T11:01:02.105Z,56.61
2022-09-02T11:02:02.099Z,58.42
2022-09-02T11:03:02.143Z,58.18
2022-09-02T11:04:02.100Z,56.98
2022-09-02T11:05:02.115Z,57.15
2022-09-02T11:06:02.038Z,55.75
2022-09-02T11:07:03.526Z,57.26
2022-09-02T11:08:02.051Z,54.45
2022-09-02T11:09:02.014Z,55.45
2022-09-02T11:10:02.006Z,55.35
2022-09-02T11:11:01.997Z,55.38
2022-09-02T11:12:02.038Z,55.47
2022-09-02T11:13:01.967Z,55.23
2022-09-02T11:14:02.020Z,56.76
2022-09-02T11:15:01.981Z,55.08
2022-09-02T11:16:02.001Z,57.82
2022-09-02T11:17:01.978Z,56.82
2022-09-02T11:18:01.966Z,58.42
2022-09-02T11:19:01.902Z,57.62
2022-09-02T11:20:01.893Z,57.92
2022-09-02T11:21:01.894Z,59.76
2022-09-02T11:22:01.918Z,59.83
2022-09-02T11:23:01.872Z,57.45
2022-09-02T11:24:01.845Z,58.65
2022-09-02T11:25:01.838Z,58.28
2022-09-02T11:26:01.855Z,59.99
2022-09-02T11:27:01.807Z,61.57
2022-09-02T11:28:01.812Z,58.95
2022-09-02T11:29:01.791Z,56.77
2022-09-02T11:30:01.778Z,57.68
2022-09-02T11:31:01.789Z,59.99
2022-09-02T11:32:01.774Z,59.28
2022-09-02T11:33:01.739Z,61.30
2022-09-02T11:35:01.744Z,60.74
2022-09-02T11:36:01.701Z,56.79
2022-09-02T11:37:01.732Z,57.09
2022-09-02T11:38:01.706Z,57.29
2022-09-02T11:39:01.679Z,58.93
2022-09-02T11:40:23.558Z,62.05
2022-09-02T11:42:02.685Z,59.20
2022-09-02T11:43:01.668Z,60.58
2022-09-02T11:44:01.645Z,61.08
2022-09-02T11:45:01.600Z,58.67
2022-09-02T11:46:01.650Z,55.16
2022-09-02T11:47:01.653Z,58.09
2022-09-02T11:48:01.583Z,61.71
2022-09-02T11:49:01.567Z,56.89
2022-09-02T11:50:01.549Z,56.36
2022-09-02T11:51:01.565Z,55.46
2022-09-02T11:52:02.123Z,56.46
2022-09-02T11:53:01.515Z,59.65
2022-09-02T11:54:01.500Z,60.25
2022-09-02T11:55:02.791Z,55.40
2022-09-02T11:56:01.487Z,56.15
2022-09-02T11:57:01.527Z,58.23
2022-09-02T11:58:01.502Z,58.81
2022-09-02T11:59:01.468Z,54.47
2022-09-02T12:00:01.455Z,55.15
2022-09-02T12:01:01.422Z,56.02
2022-09-02T12:02:01.421Z,55.09
2022-09-02T12:03:11.498Z,55.79
2022-09-02T12:05:02.906Z,52.07
2022-09-02T12:06:01.570Z,50.72
2022-09-02T12:07:04.442Z,47.26
2022-09-02T12:08:02.343Z,50.99
2022-09-02T12:09:01.367Z,51.89
2022-09-02T12:10:01.333Z,53.19
2022-09-02T12:11:01.374Z,54.30
2022-09-02T12:12:03.964Z,55.17
2022-09-02T12:13:01.870Z,50.89
2022-09-02T12:14:02.967Z,52.67
2022-09-02T12:15:01.336Z,52.07
2022-09-02T12:16:01.302Z,51.39
2022-09-02T12:17:01.823Z,51.42
2022-09-02T12:18:01.237Z,52.14
2022-09-02T12:19:01.296Z,52.64
2022-09-02T12:20:01.238Z,51.64
2022-09-02T12:21:01.254Z,55.45
2022-09-02T12:22:01.194Z,55.45
2022-09-02T12:23:01.206Z,55.55
2022-09-02T12:24:01.203Z,55.35
2022-09-02T12:25:01.487Z,53.05
2022-09-02T12:26:01.151Z,54.55
2022-09-02T12:27:01.152Z,53.47
2022-09-02T12:28:01.125Z,54.47
2022-09-02T12:29:01.120Z,55.38
2022-09-02T12:30:01.138Z,56.18
2022-09-02T12:31:01.121Z,56.68
2022-09-02T12:32:01.106Z,54.17
2022-09-02T12:33:01.093Z,55.45
2022-09-02T12:34:01.066Z,55.35
2022-09-02T12:35:01.105Z,55.25
2022-09-02T12:36:01.038Z,53.75
2022-09-02T12:37:01.026Z,52.47
2022-09-02T12:38:01.019Z,54.97
2022-09-02T12:39:01.031Z,56.26
2022-09-02T12:40:00.994Z,56.63
2022-09-02T12:41:01.009Z,57.23
2022-09-02T12:42:00.973Z,56.63
2022-09-02T12:43:00.957Z,55.10
2022-09-02T12:44:00.971Z,52.29
2022-09-02T12:45:00.940Z,54.62
2022-09-02T12:46:00.957Z,52.12
2022-09-02T12:47:00.971Z,52.84
2022-09-02T12:48:00.906Z,55.35
2022-09-02T12:49:00.936Z,55.45
2022-09-02T12:50:00.888Z,55.05
2022-09-02T12:51:00.879Z,54.88
2022-09-02T12:52:00.867Z,53.02
2022-09-02T12:53:00.889Z,56.26
2022-09-02T12:54:00.846Z,56.46
2022-09-02T12:55:00.833Z,56.96
2022-09-02T12:56:00.821Z,58.84
2022-09-02T12:57:00.874Z,55.46
2022-09-02T12:58:00.809Z,59.34
2022-09-02T12:59:02.881Z,58.54
2022-09-02T13:00:00.777Z,56.30